Time;durP1;ratioP1;P1;durP2;ratioP2;P2;SDS_P1;SDS_P2;PMS_P1;PMS_P2;Temp;Humidity;BMP_temperature;BMP_pressure;BME280_temperature;BME280_humidity;BME280_pressure;Samples;Min_cycle;Max_cycle;Signal;HPM_P1;HPM_P2
2023/05/05 00:00:36;;;;;;;5.62;2.85;;;;;;;12.06;92.21;100860.13;5527960;32;33119;-70
2023/05/05 00:03:40;;;;;;;4.07;2.08;;;;;;;12.00;92.00;100857.31;5526829;32;34570;-71
2023/05/05 00:06:43;;;;;;;5.85;2.80;;;;;;;11.89;93.58;100852.31;5527863;32;33656;-71
2023/05/05 00:09:45;;;;;;;5.45;2.55;;;;;;;11.76;94.44;100856.25;5527729;32;33608;-71
2023/05/05 00:12:48;;;;;;;6.18;2.80;;;;;;;11.65;94.80;100853.06;5527707;32;34518;-71
2023/05/05 00:15:52;;;;;;;4.43;2.70;;;;;;;11.67;96.36;100853.72;5527761;32;33918;-71
2023/05/05 00:18:55;;;;;;;6.20;3.00;;;;;;;11.57;95.51;100853.06;5528002;32;33702;-71
2023/05/05 00:21:58;;;;;;;10.25;2.95;;;;;;;11.49;95.26;100847.72;5527405;32;33957;-71
2023/05/05 00:25:00;;;;;;;4.97;3.00;;;;;;;11.45;96.33;100857.00;5527851;32;33916;-71
2023/05/05 00:28:03;;;;;;;4.93;2.70;;;;;;;11.44;98.69;100850.84;5527760;32;34640;-70
2023/05/05 00:31:06;;;;;;;4.72;2.80;;;;;;;11.39;99.54;100853.16;5527470;32;33640;-71
2023/05/05 00:34:09;;;;;;;5.50;2.78;;;;;;;11.30;100.00;100852.31;5526180;32;33907;-71
2023/05/05 00:37:13;;;;;;;6.12;2.90;;;;;;;11.24;99.48;100847.63;5527120;32;34746;-70
2023/05/05 00:40:17;;;;;;;4.90;3.00;;;;;;;11.19;99.81;100849.09;5527112;32;33903;-71
2023/05/05 00:43:20;;;;;;;4.90;2.92;;;;;;;11.21;99.96;100844.47;5526912;32;34237;-70
2023/05/05 00:46:25;;;;;;;5.68;3.10;;;;;;;11.15;100.00;100848.59;5526885;32;33745;-70
2023/05/05 00:49:28;;;;;;;4.78;3.08;;;;;;;11.09;100.00;100843.09;5526882;32;33661;-71
2023/05/05 00:52:31;;;;;;;4.15;2.78;;;;;;;11.05;100.00;100850.53;5527251;32;33835;-70
2023/05/05 00:55:34;;;;;;;8.15;2.75;;;;;;;11.00;100.00;100839.56;5526120;32;33682;-70
2023/05/05 00:58:40;;;;;;;6.72;2.70;;;;;;;10.99;100.00;100831.78;5526104;32;34863;-70
2023/05/05 01:01:44;;;;;;;6.70;2.97;;;;;;;10.97;100.00;100844.38;5526857;32;33895;-70
2023/05/05 01:04:47;;;;;;;5.18;3.17;;;;;;;10.94;100.00;100842.03;5526890;32;33852;-70
2023/05/05 01:08:08;;;;;;;5.20;3.17;;;;;;;10.87;100.00;100834.72;5526923;32;34602;-71
2023/05/05 01:11:43;;;;;;;5.50;2.90;;;;;;;10.88;100.00;100844.34;5526801;32;33564;-70
2023/05/05 01:15:06;;;;;;;7.90;3.22;;;;;;;10.93;100.00;100843.87;5526619;32;33712;-70
2023/05/05 01:18:22;;;;;;;6.85;3.05;;;;;;;10.80;100.00;100828.34;5528577;32;33893;-70
2023/05/05 01:21:32;;;;;;;5.55;3.15;;;;;;;10.71;100.00;100831.97;5529552;32;33687;-70
2023/05/05 01:24:44;;;;;;;;;;;;;;;10.61;100.00;100828.59;5528857;32;34750;-70
2023/05/05 01:27:51;;;;;;;7.62;3.20;;;;;;;10.59;100.00;100827.09;5529627;32;34802;-70
2023/05/05 01:31:00;;;;;;;10.70;2.90;;;;;;;10.50;100.00;100818.25;5529503;32;34340;-70
2023/05/05 01:34:06;;;;;;;8.40;3.65;;;;;;;10.48;100.00;100828.19;5528529;32;34417;-70
2023/05/05 01:37:17;;;;;;;6.25;3.55;;;;;;;10.46;100.00;100830.97;5528632;32;33912;-70
2023/05/05 01:40:25;;;;;;;4.78;3.37;;;;;;;10.48;100.00;100835.31;5529628;32;33942;-70
2023/05/05 01:43:32;;;;;;;9.43;4.12;;;;;;;10.42;100.00;100828.78;5529312;32;34369;-70
2023/05/05 01:46:35;;;;;;;5.28;3.33;;;;;;;10.40;100.00;100828.97;5529247;32;33782;-70
2023/05/05 01:49:40;;;;;;;5.82;3.30;;;;;;;10.48;100.00;100835.31;5528181;32;34425;-70
2023/05/05 01:52:45;;;;;;;5.43;3.58;;;;;;;10.51;100.00;100833.16;5529295;32;33828;-70
2023/05/05 01:55:49;;;;;;;6.07;3.53;;;;;;;10.51;100.00;100829.69;5529118;32;34851;-70
2023/05/05 01:58:54;;;;;;;6.30;3.58;;;;;;;10.40;100.00;100823.66;5529271;32;34339;-70
2023/05/05 02:02:01;;;;;;;5.70;3.20;;;;;;;10.38;100.00;100828.28;5529499;32;33425;-70
2023/05/05 02:05:05;;;;;;;7.60;3.35;;;;;;;10.32;100.00;100830.72;5529130;32;34523;-70
2023/05/05 02:08:10;;;;;;;5.80;3.00;;;;;;;10.28;100.00;100824.06;5529120;32;34113;-70
2023/05/05 02:11:15;;;;;;;4.70;2.97;;;;;;;10.22;100.00;100820.19;5529139;32;33590;-70
2023/05/05 02:14:20;;;;;;;6.68;3.25;;;;;;;10.24;100.00;100817.41;5529073;32;34473;-70
2023/05/05 02:17:24;;;;;;;8.48;3.80;;;;;;;10.23;100.00;100818.38;5529051;32;33905;-70
2023/05/05 02:20:30;;;;;;;6.10;3.37;;;;;;;10.28;100.00;100816.94;5528590;32;33707;-70
2023/05/05 02:23:35;;;;;;;5.55;3.50;;;;;;;10.35;100.00;100822.47;5528961;32;33758;-70
2023/05/05 02:26:39;;;;;;;6.45;3.67;;;;;;;10.23;100.00;100821.88;5527556;32;34074;-70
2023/05/05 02:29:53;;;;;;;5.22;3.10;;;;;;;10.19;100.00;100825.81;5528154;32;33705;-70
2023/05/05 02:33:04;;;;;;;10.15;3.75;;;;;;;10.12;100.00;100815.97;5528958;32;34955;-70
2023/05/05 02:36:16;;;;;;;6.10;3.35;;;;;;;10.10;100.00;100817.94;5528130;32;33654;-70
2023/05/05 02:39:29;;;;;;;5.45;3.53;;;;;;;10.08;100.00;100820.72;5528880;32;33894;-70
2023/05/05 02:42:39;;;;;;;6.12;3.75;;;;;;;10.04;100.00;100820.22;5528774;32;33773;-70
2023/05/05 02:45:42;;;;;;;7.50;3.80;;;;;;;9.97;100.00;100826.28;5529164;32;34652;-70
2023/05/05 02:48:47;;;;;;;5.03;3.17;;;;;;;9.91;100.00;100818.94;5529063;32;34333;-70
2023/05/05 02:51:50;;;;;;;6.37;4.07;;;;;;;9.89;100.00;100818.25;5528048;32;33878;-70
2023/05/05 02:54:53;;;;;;;8.25;3.47;;;;;;;10.09;100.00;100818.91;5529138;32;33692;-70
2023/05/05 02:58:04;;;;;;;8.25;3.80;;;;;;;10.19;100.00;100822.34;5529008;32;34589;-70
2023/05/05 03:01:15;;;;;;;6.70;3.90;;;;;;;10.04;100.00;100824.69;5529136;32;34281;-70
2023/05/05 03:04:30;;;;;;;7.80;4.20;;;;;;;9.95;100.00;100828.25;5528896;32;34616;-70
2023/05/05 03:07:39;;;;;;;7.95;3.85;;;;;;;9.82;100.00;100827.81;5527872;32;33690;-70
2023/05/05 03:10:46;;;;;;;7.43;4.00;;;;;;;9.74;100.00;100830.37;5528597;32;33961;-70
2023/05/05 03:13:59;;;;;;;8.43;3.90;;;;;;;9.70;100.00;100816.59;5528561;32;34209;-70
2023/05/05 03:17:04;;;;;;;7.32;4.18;;;;;;;9.70;100.00;100821.06;5528966;32;33852;-70
2023/05/05 03:20:10;;;;;;;6.93;4.35;;;;;;;9.59;100.00;100816.81;5528561;32;33639;-70
2023/05/05 03:23:13;;;;;;;6.47;3.92;;;;;;;9.56;100.00;100819.78;5528766;32;34721;-70
2023/05/05 03:26:17;;;;;;;6.40;4.35;;;;;;;9.51;100.00;100820.22;5528791;32;34297;-70
2023/05/05 03:29:21;;;;;;;6.90;4.03;;;;;;;9.77;100.00;100817.66;5528087;32;33968;-70
2023/05/05 03:32:24;;;;;;;6.85;4.57;;;;;;;9.75;100.00;100816.13;5528406;32;34524;-70
2023/05/05 03:35:27;;;;;;;10.57;5.07;;;;;;;9.68;100.00;100820.41;5528468;32;34384;-70
2023/05/05 03:38:30;;;;;;;14.68;4.47;;;;;;;9.59;100.00;100822.94;5527150;32;33844;-70
2023/05/05 03:41:33;;;;;;;8.88;3.95;;;;;;;9.55;100.00;100815.44;5528240;32;35347;-70
2023/05/05 03:44:37;;;;;;;6.10;4.12;;;;;;;9.50;100.00;100825.66;5528245;32;33735;-70
2023/05/05 03:47:39;;;;;;;8.43;4.12;;;;;;;9.44;100.00;100816.50;5528077;32;33747;-70
2023/05/05 03:50:45;;;;;;;7.95;4.60;;;;;;;9.39;100.00;100823.25;5528086;32;33616;-69
2023/05/05 03:53:48;;;;;;;8.57;4.97;;;;;;;9.37;100.00;100812.78;5528037;32;33924;-70
2023/05/05 03:56:51;;;;;;;10.80;4.85;;;;;;;9.40;100.00;100831.03;5528397;32;33633;-70
2023/05/05 03:59:54;;;;;;;7.93;4.72;;;;;;;9.44;100.00;100834.22;5527913;32;34406;-70
2023/05/05 04:02:57;;;;;;;7.37;4.53;;;;;;;9.47;100.00;100841.88;5527787;32;34147;-70
2023/05/05 04:06:00;;;;;;;9.20;4.60;;;;;;;9.51;100.00;100838.75;5527075;32;34408;-70
2023/05/05 04:09:04;;;;;;;6.93;4.43;;;;;;;9.77;100.00;100836.22;5527818;32;33374;-70
2023/05/05 04:12:07;;;;;;;6.28;4.53;;;;;;;9.84;100.00;100839.06;5527879;32;34627;-70
2023/05/05 04:15:10;;;;;;;6.25;4.20;;;;;;;10.07;100.00;100839.47;5527658;32;33662;-70
2023/05/05 04:18:14;;;;;;;9.85;5.10;;;;;;;10.15;100.00;100842.16;5526715;32;33937;-70
2023/05/05 04:21:17;;;;;;;8.25;4.60;;;;;;;10.18;100.00;100839.22;5528006;32;33979;-69
2023/05/05 04:24:23;;;;;;;6.97;4.00;;;;;;;10.23;100.00;100837.78;5527555;32;33825;-69
2023/05/05 04:27:28;;;;;;;7.62;4.43;;;;;;;10.33;100.00;100835.03;5527658;32;33936;-69
2023/05/05 04:30:32;;;;;;;10.23;4.70;;;;;;;10.43;100.00;100833.97;5527542;32;34662;-69
2023/05/05 04:33:34;;;;;;;8.23;4.40;;;;;;;10.49;100.00;100847.59;5527369;32;34268;-69
2023/05/05 04:36:37;;;;;;;8.73;4.30;;;;;;;10.54;100.00;100838.16;5527710;32;34500;-69
2023/05/05 04:39:40;;;;;;;9.13;4.18;;;;;;;10.70;100.00;100850.69;5526349;32;33934;-69
2023/05/05 04:42:43;;;;;;;5.93;4.40;;;;;;;10.64;100.00;100857.47;5526940;32;33728;-69
2023/05/05 04:45:53;;;;;;;9.00;4.70;;;;;;;10.71;100.00;100853.19;5527404;32;34612;-69
2023/05/05 04:48:57;;;;;;;11.52;4.60;;;;;;;10.76;100.00;100853.56;5526844;32;34505;-69
2023/05/05 04:52:00;;;;;;;10.23;4.90;;;;;;;10.76;100.00;100860.69;5529487;32;33602;-69
2023/05/05 04:55:04;;;;;;;8.73;4.82;;;;;;;10.82;100.00;100858.25;5529669;32;34410;-69
2023/05/05 04:58:07;;;;;;;8.77;4.72;;;;;;;10.83;100.00;100865.22;5529641;32;33898;-69
2023/05/05 05:01:10;;;;;;;8.23;4.12;;;;;;;10.98;100.00;100867.28;5529402;32;33968;-69
2023/05/05 05:04:17;;;;;;;6.82;4.35;;;;;;;11.14;100.00;100865.50;5529152;32;33655;-69
2023/05/05 05:07:20;;;;;;;8.45;4.50;;;;;;;11.12;100.00;100874.66;5528600;32;33549;-70
2023/05/05 05:10:22;;;;;;;9.55;4.53;;;;;;;11.06;100.00;100872.62;5529272;32;34590;-69
2023/05/05 05:13:25;;;;;;;10.80;4.72;;;;;;;11.18;100.00;100884.63;5529382;32;34132;-69
2023/05/05 05:16:28;;;;;;;16.60;5.05;;;;;;;11.34;100.00;100884.69;5529515;32;34484;-69
2023/05/05 05:19:31;;;;;;;9.80;4.47;;;;;;;11.38;100.00;100888.69;5523534;32;34618;-69
2023/05/05 05:22:37;;;;;;;11.90;4.47;;;;;;;11.48;100.00;100883.22;5529434;32;33873;-69
2023/05/05 05:25:41;;;;;;;13.57;4.90;;;;;;;11.47;100.00;100874.47;5542541;32;33901;-69
2023/05/05 05:28:44;;;;;;;9.48;4.65;;;;;;;11.64;100.00;100876.16;5546892;32;34440;-69
2023/05/05 05:31:47;;;;;;;9.52;4.12;;;;;;;11.86;100.00;100885.34;5529467;32;33957;-69
2023/05/05 05:34:49;;;;;;;10.38;4.15;;;;;;;11.88;100.00;100887.84;5529493;32;34231;-69
2023/05/05 05:37:52;;;;;;;7.95;4.22;;;;;;;12.01;100.00;100893.50;5528765;32;34037;-69
2023/05/05 05:40:55;;;;;;;12.68;4.03;;;;;;;12.17;100.00;100894.37;5545673;32;34002;-69
2023/05/05 05:43:58;;;;;;;13.73;4.37;;;;;;;12.32;100.00;100899.03;5548055;32;34595;-69
2023/05/05 05:47:02;;;;;;;11.57;4.57;;;;;;;12.49;100.00;100901.50;5547824;32;33784;-69
2023/05/05 05:50:06;;;;;;;6.82;4.28;;;;;;;12.68;100.00;100903.03;5548232;32;33866;-68
2023/05/05 05:53:10;;;;;;;8.30;4.20;;;;;;;12.68;100.00;100896.84;5546896;32;34569;-69
2023/05/05 05:56:13;;;;;;;15.82;4.20;;;;;;;12.97;100.00;100908.59;5545801;32;34070;-68
2023/05/05 05:59:15;;;;;;;7.07;3.87;;;;;;;13.04;100.00;100904.25;5544717;32;33697;-69
2023/05/05 06:02:19;;;;;;;9.23;3.83;;;;;;;13.19;100.00;100907.06;5537031;32;34075;-69
2023/05/05 06:05:22;;;;;;;7.97;4.25;;;;;;;13.37;100.00;100898.84;5548112;32;34379;-69
2023/05/05 06:08:25;;;;;;;8.73;3.87;;;;;;;13.55;99.75;100899.44;5548069;32;33964;-69
2023/05/05 06:11:29;;;;;;;8.85;4.32;;;;;;;13.69;97.45;100905.88;5546425;32;34240;-69
2023/05/05 06:14:31;;;;;;;7.12;3.45;;;;;;;13.91;96.75;100910.38;5539697;32;34911;-70
2023/05/05 06:17:34;;;;;;;11.27;3.42;;;;;;;13.87;95.35;100904.56;5528863;32;34074;-69
2023/05/05 06:20:37;;;;;;;10.77;4.25;;;;;;;13.81;85.69;100913.28;5530016;32;34552;-68
2023/05/05 06:23:41;;;;;;;7.28;4.30;;;;;;;14.07;87.26;100904.13;5554985;32;34062;-68
2023/05/05 06:26:43;;;;;;;7.82;3.90;;;;;;;14.19;87.10;100894.69;5555763;32;33637;-68
2023/05/05 06:29:46;;;;;;;7.15;3.70;;;;;;;14.37;87.75;100902.44;5545117;32;34198;-68
2023/05/05 06:32:49;;;;;;;5.95;3.37;;;;;;;14.48;84.93;100894.78;5546927;32;33950;-68
2023/05/05 06:35:52;;;;;;;10.93;3.85;;;;;;;14.62;77.42;100893.19;5547688;32;34473;-69
2023/05/05 06:38:55;;;;;;;10.02;3.17;;;;;;;14.78;74.93;100891.19;5535370;32;33823;-68
2023/05/05 06:41:57;;;;;;;7.82;3.33;;;;;;;14.91;71.30;100895.06;5546023;32;32359;-68
2023/05/05 06:45:01;;;;;;;4.30;2.80;;;;;;;15.23;70.24;100889.34;5533506;32;33667;-68
2023/05/05 06:48:04;;;;;;;6.00;3.20;;;;;;;15.55;68.82;100894.31;5527536;32;33925;-68
2023/05/05 06:51:08;;;;;;;7.97;3.28;;;;;;;15.65;66.88;100889.50;5540186;32;33478;-68
2023/05/05 06:54:11;;;;;;;7.50;2.97;;;;;;;15.84;67.04;100893.41;5545892;32;33835;-69
2023/05/05 06:57:13;;;;;;;6.40;3.40;;;;;;;15.77;63.47;100892.53;5547259;32;33904;-69
2023/05/05 07:00:17;;;;;;;5.50;3.12;;;;;;;16.26;67.05;100887.25;5542700;32;33825;-69
2023/05/05 07:03:20;;;;;;;20.67;4.40;;;;;;;16.63;64.11;100883.47;5546674;32;33748;-70
2023/05/05 07:06:23;;;;;;;13.20;3.22;;;;;;;16.80;61.95;100886.66;5546494;32;34986;-69
2023/05/05 07:09:26;;;;;;;19.65;3.65;;;;;;;17.61;59.90;100895.78;5547567;32;34578;-68
2023/05/05 07:12:32;;;;;;;7.50;3.30;;;;;;;18.15;57.05;100893.84;5547517;32;33805;-70
2023/05/05 07:15:34;;;;;;;6.30;3.10;;;;;;;19.02;54.49;100890.97;5547811;32;34616;-69
2023/05/05 07:18:38;;;;;;;5.30;2.65;;;;;;;19.80;51.22;100890.91;5547743;32;33795;-69
2023/05/05 07:21:40;;;;;;;8.93;3.53;;;;;;;20.43;49.70;100893.63;5546657;32;33919;-70
2023/05/05 07:24:44;;;;;;;11.07;3.15;;;;;;;21.09;46.90;100893.81;5547577;32;34580;-69
2023/05/05 07:27:46;;;;;;;6.20;3.17;;;;;;;21.70;46.04;100891.00;5547750;32;33828;-69
2023/05/05 07:30:50;;;;;;;9.27;3.47;;;;;;;22.20;44.54;100891.56;5547555;32;33930;-69
2023/05/05 07:33:53;;;;;;;10.25;2.95;;;;;;;21.57;45.15;100889.31;5546676;32;33638;-70
2023/05/05 07:36:56;;;;;;;15.93;3.83;;;;;;;21.61;44.64;100886.97;5544145;32;33882;-68
2023/05/05 07:39:59;;;;;;;6.62;3.00;;;;;;;21.06;45.98;100886.16;5547272;32;33728;-68
2023/05/05 07:43:03;;;;;;;8.43;3.37;;;;;;;22.67;43.62;100880.81;5541116;32;33962;-69
2023/05/05 07:46:06;;;;;;;10.10;2.92;;;;;;;22.66;43.36;100884.56;5527900;32;34105;-70
2023/05/05 07:49:09;;;;;;;97.40;7.60;;;;;;;23.19;41.15;100892.59;5522463;32;166417;-70
2023/05/05 07:52:12;;;;;;;9.63;2.90;;;;;;;23.35;41.24;100887.25;5526845;32;34942;-70
2023/05/05 07:55:15;;;;;;;5.75;2.95;;;;;;;23.60;40.73;100884.25;5526816;32;34597;-71
2023/05/05 07:58:18;;;;;;;5.18;3.47;;;;;;;25.40;38.34;100886.66;5527001;32;33476;-72
2023/05/05 08:01:21;;;;;;;7.07;3.35;;;;;;;24.43;37.88;100888.22;5530945;32;33857;-71
2023/05/05 08:04:24;;;;;;;6.40;2.97;;;;;;;24.42;37.85;100889.28;5547212;32;34848;-70
2023/05/05 08:07:27;;;;;;;9.43;2.97;;;;;;;25.68;37.63;100890.25;5546154;32;34419;-71
2023/05/05 08:10:29;;;;;;;7.72;3.20;;;;;;;24.75;39.03;100885.72;5536802;32;33551;-71
2023/05/05 08:13:33;;;;;;;6.72;3.42;;;;;;;26.15;36.92;100888.56;5546898;32;33835;-71
2023/05/05 08:16:36;;;;;;;8.02;3.35;;;;;;;26.92;34.80;100888.13;5546520;32;34755;-71
2023/05/05 08:19:39;;;;;;;7.47;3.10;;;;;;;26.46;34.88;100886.97;5545802;32;33651;-70
2023/05/05 08:22:42;;;;;;;8.30;3.70;;;;;;;27.03;33.41;100886.28;5546726;32;34617;-72
2023/05/05 08:25:45;;;;;;;12.40;4.00;;;;;;;27.14;32.99;100877.91;5547912;32;33924;-72
2023/05/05 08:28:48;;;;;;;10.45;3.55;;;;;;;26.63;34.04;100875.91;5548739;32;33733;-71
2023/05/05 08:31:51;;;;;;;19.25;3.97;;;;;;;27.15;33.79;100871.37;5548847;32;34844;-71
2023/05/05 08:34:54;;;;;;;5.75;3.42;;;;;;;27.96;33.16;100882.56;5533738;32;34512;-71
2023/05/05 08:37:56;;;;;;;7.10;3.70;;;;;;;26.72;33.44;100877.09;5544062;32;33950;-71
2023/05/05 08:41:01;;;;;;;5.75;3.30;;;;;;;26.90;33.79;100875.88;5549153;32;33961;-71
2023/05/05 08:44:04;;;;;;;6.60;3.05;;;;;;;27.53;32.89;100866.66;5549048;32;33595;-72
2023/05/05 08:47:10;;;;;;;5.05;2.95;;;;;;;28.40;31.22;100873.88;5532500;32;33967;-71
2023/05/05 08:50:13;;;;;;;10.13;3.78;;;;;;;27.96;32.76;100873.56;5542569;32;34667;-71
2023/05/05 08:53:20;;;;;;;7.35;3.30;;;;;;;28.22;32.65;100869.81;5548713;32;33621;-72
2023/05/05 08:56:36;;;;;;;10.60;3.60;;;;;;;25.13;37.59;100872.19;5542414;32;33868;-71
2023/05/05 08:59:40;;;;;;;6.78;3.30;;;;;;;26.79;34.39;100859.44;5540603;32;33855;-72
2023/05/05 09:02:44;;;;;;;10.80;3.62;;;;;;;27.53;32.87;100867.47;5539829;32;35066;-71
2023/05/05 09:05:47;;;;;;;5.65;3.33;;;;;;;27.89;32.40;100867.53;5528729;32;34859;-71
2023/05/05 09:08:50;;;;;;;5.20;3.72;;;;;;;28.61;31.02;100863.78;5529139;32;34058;-71
2023/05/05 09:11:56;;;;;;;9.00;3.37;;;;;;;29.45;29.05;100869.28;5530128;32;34021;-71
2023/05/05 09:15:02;;;;;;;6.97;3.20;;;;;;;29.33;29.64;100863.34;5548764;32;34426;-71
2023/05/05 09:18:10;;;;;;;6.72;3.62;;;;;;;28.26;31.04;100859.97;5543392;32;33927;-72
2023/05/05 09:21:21;;;;;;;6.15;3.65;;;;;;;29.84;28.34;100857.56;5548886;32;34451;-71
2023/05/05 09:24:24;;;;;;;11.27;3.55;;;;;;;30.67;28.01;100857.47;5549156;32;33799;-71
2023/05/05 09:27:27;;;;;;;7.78;3.45;;;;;;;30.15;28.50;100846.16;5548251;32;33758;-71
2023/05/05 09:30:30;;;;;;;6.75;2.90;;;;;;;28.05;31.64;100839.19;5547568;32;34142;-71
2023/05/05 09:33:33;;;;;;;10.63;3.45;;;;;;;30.16;29.34;100847.78;5537636;32;33683;-71
2023/05/05 09:36:46;;;;;;;7.12;3.35;;;;;;;30.60;28.62;100839.47;5541379;32;34110;-71
2023/05/05 09:39:54;;;;;;;15.70;3.85;;;;;;;30.10;28.20;100828.97;5530023;32;34397;-71
2023/05/05 09:43:01;;;;;;;4.70;2.95;;;;;;;32.41;26.27;100829.03;5542499;32;34412;-72
2023/05/05 09:46:06;;;;;;;16.50;3.78;;;;;;;31.32;27.80;100825.78;5548358;32;33896;-72
2023/05/05 09:49:17;;;;;;;4.12;3.37;;;;;;;28.40;30.53;100822.03;5550867;32;34262;-71
2023/05/05 09:52:22;;;;;;;8.00;3.40;;;;;;;28.27;31.01;100817.13;5553090;32;34561;-68
2023/05/05 09:55:32;;;;;;;11.70;3.87;;;;;;;32.38;26.24;100818.66;5552474;32;33552;-72
2023/05/05 09:58:35;;;;;;;22.27;4.07;;;;;;;30.76;27.91;100820.94;5551861;32;34217;-71
2023/05/05 10:01:38;;;;;;;6.75;3.20;;;;;;;30.68;28.59;100813.37;5548576;32;33805;-71
2023/05/05 10:04:41;;;;;;;5.43;3.53;;;;;;;29.37;29.97;100818.75;5548201;32;33722;-71
2023/05/05 10:07:46;;;;;;;7.50;3.87;;;;;;;30.09;27.51;100819.94;5548005;32;33805;-71
2023/05/05 10:10:52;;;;;;;9.10;3.70;;;;;;;29.54;27.92;100810.19;5548183;32;33921;-71
2023/05/05 10:13:56;;;;;;;7.07;3.62;;;;;;;31.12;26.34;100809.59;5547920;32;33714;-71
2023/05/05 10:17:00;;;;;;;7.00;3.42;;;;;;;32.57;24.87;100815.84;5547682;32;34863;-71
2023/05/05 10:20:06;;;;;;;11.60;3.30;;;;;;;29.40;27.94;100805.63;5547828;32;34337;-70
2023/05/05 10:23:14;;;;;;;7.93;3.28;;;;;;;30.36;27.79;100804.91;5547890;32;33724;-71
2023/05/05 10:26:19;;;;;;;10.40;3.50;;;;;;;30.95;26.62;100799.06;5546622;32;33759;-72
2023/05/05 10:29:45;;;;;;;7.47;2.92;;;;;;;32.67;23.77;100802.78;5544688;32;32289;-71
2023/05/05 10:33:11;;;;;;;4.15;2.20;;;;;;;31.26;25.41;100799.53;5531302;32;35454;-71
2023/05/05 10:36:33;;;;;;;3.25;2.42;;;;;;;31.48;23.20;100794.28;5530663;32;33757;-71
2023/05/05 10:39:37;;;;;;;5.10;2.00;;;;;;;32.57;22.40;100785.63;5537722;32;34880;-71
2023/05/05 10:42:40;;;;;;;4.28;2.67;;;;;;;34.12;21.62;100785.22;5528512;32;34617;-71
2023/05/05 10:45:46;;;;;;;4.60;3.03;;;;;;;32.35;22.75;100773.38;5537626;32;34750;-70
2023/05/05 10:49:13;;;;;;;5.47;2.40;;;;;;;31.34;23.63;100774.19;5527100;32;34321;-71
2023/05/05 10:52:27;;;;;;;5.75;2.62;;;;;;;30.96;23.52;100763.16;5529699;32;34265;-71
2023/05/05 10:56:07;;;;;;;5.35;2.60;;;;;;;32.89;22.72;100760.81;5528134;32;34540;-71
2023/05/05 10:59:36;;;;;;;6.18;2.85;;;;;;;32.62;23.25;100758.87;5521017;32;33867;-72
2023/05/05 11:02:40;;;;;;;5.03;3.08;;;;;;;32.82;22.14;100746.69;5523807;32;33520;-70
2023/05/05 11:09:27;;;;;;;3.78;2.35;;;;;;;33.49;22.93;100747.66;5528201;32;33477;-70
2023/05/05 11:12:31;;;;;;;4.05;2.85;;;;;;;34.21;21.23;100747.53;5529781;32;34631;-70
2023/05/05 11:15:36;;;;;;;5.85;3.20;;;;;;;32.22;22.97;100738.50;5526969;32;33625;-71
2023/05/05 11:18:43;;;;;;;4.55;2.85;;;;;;;34.04;21.15;100739.97;5528101;32;35001;-70
2023/05/05 11:22:00;;;;;;;6.75;2.80;;;;;;;34.84;20.90;100736.13;5527224;32;33801;-70
2023/05/05 11:25:34;;;;;;;5.53;2.45;;;;;;;32.08;22.31;100723.09;5528137;32;33838;-70
2023/05/05 11:28:55;;;;;;;4.37;2.60;;;;;;;33.74;21.68;100729.75;5527476;32;33860;-72
2023/05/05 11:32:14;;;;;;;5.30;2.47;;;;;;;35.09;20.23;100728.22;5526582;32;33641;-70
2023/05/05 11:35:17;;;;;;;5.50;3.25;;;;;;;34.77;21.13;100724.75;5527668;32;34256;-71
2023/05/05 11:38:44;;;;;;;4.82;2.83;;;;;;;34.02;21.28;100722.16;5527321;32;34752;-72
2023/05/05 11:42:01;;;;;;;6.57;3.03;;;;;;;34.17;20.77;100715.41;5522822;32;33846;-70
2023/05/05 11:45:23;;;;;;;5.55;3.15;;;;;;;33.17;21.37;100715.69;5526962;32;34742;-71
2023/05/05 11:48:26;;;;;;;5.47;3.00;;;;;;;32.22;23.02;100704.75;5527562;32;33771;-71
2023/05/05 11:51:30;;;;;;;5.15;3.03;;;;;;;33.18;22.41;100705.50;5527969;32;34317;-71
2023/05/05 11:54:47;;;;;;;5.65;3.35;;;;;;;34.14;21.37;100700.31;5528249;32;33537;-71
2023/05/05 11:57:50;;;;;;;7.55;3.30;;;;;;;33.50;21.41;100704.47;5530484;32;33775;-71
2023/05/05 12:00:54;;;;;;;8.15;3.40;;;;;;;34.83;20.16;100695.91;5539823;32;34617;-72
2023/05/05 12:03:59;;;;;;;5.68;3.05;;;;;;;34.94;20.65;100690.09;5529032;32;33788;-72
2023/05/05 12:07:02;;;;;;;4.78;3.37;;;;;;;34.93;21.05;100680.19;5527686;32;33743;-70
2023/05/05 12:10:05;;;;;;;5.57;3.05;;;;;;;37.32;18.29;100691.56;5530710;32;34369;-71
2023/05/05 12:13:18;;;;;;;7.10;3.20;;;;;;;35.29;19.71;100677.97;5531139;32;33850;-71
2023/05/05 12:16:21;;;;;;;5.30;3.20;;;;;;;33.74;21.18;100674.72;5540945;32;33915;-71
2023/05/05 12:19:28;;;;;;;11.18;2.80;;;;;;;36.82;18.43;100675.00;5546596;32;33928;-71
2023/05/05 12:22:31;;;;;;;5.53;2.70;;;;;;;35.47;19.83;100665.75;5546018;32;34453;-71
2023/05/05 12:25:36;;;;;;;4.28;2.30;;;;;;;36.05;19.11;100664.31;5545048;32;34124;-70
2023/05/05 12:28:45;;;;;;;4.12;2.30;;;;;;;36.99;19.01;100658.25;5546612;32;33762;-72
2023/05/05 12:31:48;;;;;;;5.57;2.50;;;;;;;37.16;18.57;100662.88;5538261;32;34492;-71
2023/05/05 12:34:53;;;;;;;7.85;2.80;;;;;;;37.77;17.57;100660.31;5526991;32;33634;-69
2023/05/05 12:37:57;;;;;;;4.10;3.00;;;;;;;34.84;19.32;100655.38;5532369;32;34887;-70
2023/05/05 12:41:00;;;;;;;4.55;3.10;;;;;;;33.76;19.78;100658.69;5536284;32;33566;-70
2023/05/05 12:44:03;;;;;;;4.53;2.90;;;;;;;34.31;19.53;100644.53;5539624;32;34568;-71
2023/05/05 12:47:06;;;;;;;6.82;2.87;;;;;;;34.59;19.99;100653.34;5534096;32;33849;-70
2023/05/05 12:50:09;;;;;;;9.45;2.95;;;;;;;35.85;18.80;100649.28;5530845;32;33999;-71
2023/05/05 12:53:20;;;;;;;7.32;3.00;;;;;;;34.93;19.78;100644.34;5539829;32;33900;-72
2023/05/05 12:56:30;;;;;;;3.80;2.92;;;;;;;34.24;20.26;100642.25;5540482;32;33821;-72
2023/05/05 12:59:33;;;;;;;5.40;2.65;;;;;;;35.57;18.52;100639.78;5535107;32;33953;-71
2023/05/05 13:02:36;;;;;;;5.87;2.60;;;;;;;36.12;18.55;100628.69;5536850;32;33842;-71
2023/05/05 13:05:40;;;;;;;7.53;2.87;;;;;;;38.20;17.90;100629.34;5536252;32;33786;-71
2023/05/05 13:08:42;;;;;;;6.85;3.20;;;;;;;36.79;17.89;100627.88;5544329;32;34591;-71
2023/05/05 13:11:45;;;;;;;11.32;3.40;;;;;;;37.32;17.88;100625.12;5546273;32;33891;-71
2023/05/05 13:14:48;;;;;;;5.90;3.28;;;;;;;33.24;20.52;100612.69;5548819;32;33683;-72
2023/05/05 13:18:01;;;;;;;9.40;3.80;;;;;;;32.95;20.77;100602.91;5548181;32;35085;-70
2023/05/05 13:21:04;;;;;;;6.35;3.90;;;;;;;32.60;22.27;100603.69;5546475;32;34768;-71
2023/05/05 13:24:07;;;;;;;8.80;3.30;;;;;;;32.46;21.49;100602.91;5543523;32;34407;-70
2023/05/05 13:27:30;;;;;;;12.32;3.97;;;;;;;31.45;22.38;100589.22;5535156;32;33685;-69
2023/05/05 13:30:33;;;;;;;9.27;3.50;;;;;;;30.81;24.03;100588.03;5533192;32;34498;-69
2023/05/05 13:33:35;;;;;;;6.53;3.70;;;;;;;32.40;22.55;100593.97;5542616;32;33897;-70
2023/05/05 13:36:38;;;;;;;9.35;4.18;;;;;;;33.30;21.54;100586.72;5527873;32;33880;-70
2023/05/05 13:39:41;;;;;;;7.57;3.95;;;;;;;35.55;19.22;100584.09;5528235;32;33498;-71
2023/05/05 13:42:45;;;;;;;5.82;3.40;;;;;;;36.16;18.42;100578.00;5543331;32;34535;-71
2023/05/05 13:45:47;;;;;;;8.57;3.33;;;;;;;38.33;16.48;100570.00;5540345;32;34040;-72
2023/05/05 13:48:50;;;;;;;8.50;2.90;;;;;;;39.00;16.89;100574.78;5532400;32;34892;-72
2023/05/05 13:51:58;;;;;;;6.22;2.83;;;;;;;36.29;18.77;100573.41;5546359;32;33463;-71
2023/05/05 13:55:01;;;;;;;5.15;3.40;;;;;;;38.15;17.01;100574.97;5541863;32;34865;-71
2023/05/05 13:58:04;;;;;;;6.18;3.00;;;;;;;37.97;16.82;100569.97;5537179;32;34768;-71
2023/05/05 14:01:07;;;;;;;6.00;3.28;;;;;;;36.71;17.41;100567.91;5547816;32;33188;-71
2023/05/05 14:04:10;;;;;;;8.43;3.10;;;;;;;39.32;15.91;100567.34;5548277;32;34621;-71
2023/05/05 14:07:12;;;;;;;5.53;3.37;;;;;;;39.08;16.56;100557.16;5536539;32;33727;-71
2023/05/05 14:10:15;;;;;;;7.43;3.40;;;;;;;36.80;17.94;100563.91;5534706;32;33565;-71
2023/05/05 14:13:18;;;;;;;7.45;3.28;;;;;;;33.14;21.11;100558.75;5547761;32;33890;-70
2023/05/05 14:16:21;;;;;;;6.72;3.10;;;;;;;36.81;17.23;100559.19;5547184;32;33808;-71
2023/05/05 14:19:27;;;;;;;5.03;3.15;;;;;;;37.91;16.50;100561.09;5528039;32;34681;-71
2023/05/05 14:22:31;;;;;;;7.03;2.97;;;;;;;37.84;16.26;100556.16;5531466;32;34575;-70